createdAt,value
2022-10-04T00:01:24.286Z,4.55
2022-10-04T00:03:54.862Z,4.95
2022-10-04T00:06:23.265Z,4.40
2022-10-04T00:08:54.299Z,4.80
2022-10-04T00:11:21.348Z,3.83
2022-10-04T00:13:50.289Z,4.65
2022-10-04T00:16:46.342Z,5.22
2022-10-04T00:19:16.434Z,4.72
2022-10-04T00:21:52.437Z,5.38
2022-10-04T00:24:33.386Z,5.45
2022-10-04T00:27:12.881Z,5.68
2022-10-04T00:29:42.207Z,6.20
2022-10-04T00:32:09.245Z,5.88
2022-10-04T00:34:47.862Z,7.38
2022-10-04T00:37:15.691Z,6.10
2022-10-04T00:39:44.798Z,5.55
2022-10-04T00:42:30.052Z,5.45
2022-10-04T00:44:59.873Z,6.18
2022-10-04T00:47:32.981Z,5.68
2022-10-04T00:50:12.085Z,5.78
2022-10-04T00:52:43.509Z,5.65
2022-10-04T00:55:14.984Z,6.10
2022-10-04T00:57:45.135Z,5.85
2022-10-04T01:00:15.936Z,5.68
2022-10-04T01:02:46.076Z,5.30
2022-10-04T01:05:34.316Z,4.97
2022-10-04T01:08:04.604Z,4.82
2022-10-04T01:10:33.430Z,4.75
2022-10-04T01:13:19.421Z,4.78
2022-10-04T01:15:50.379Z,4.78
2022-10-04T01:18:20.510Z,5.03
2022-10-04T01:20:54.464Z,4.93
2022-10-04T01:23:41.826Z,5.00
2022-10-04T01:26:24.323Z,4.78
2022-10-04T01:28:52.256Z,4.70
2022-10-04T01:31:19.494Z,4.55
2022-10-04T01:33:46.679Z,4.43
2022-10-04T01:36:13.816Z,4.35
2022-10-04T01:38:40.905Z,4.55
2022-10-04T01:41:09.075Z,4.68
2022-10-04T01:43:39.147Z,4.38
2022-10-04T01:46:12.215Z,4.40
2022-10-04T01:48:42.374Z,4.25
2022-10-04T01:51:14.288Z,4.10
2022-10-04T01:53:45.613Z,3.83
2022-10-04T01:56:17.487Z,4.10
2022-10-04T01:58:51.879Z,4.37
2022-10-04T02:01:22.127Z,4.32
2022-10-04T02:03:55.298Z,4.18
2022-10-04T02:06:23.014Z,4.30
2022-10-04T02:08:51.303Z,4.10
2022-10-04T02:11:20.389Z,3.97
2022-10-04T02:13:48.975Z,4.35
2022-10-04T02:16:17.789Z,4.88
2022-10-04T02:18:45.288Z,4.03
2022-10-04T02:21:13.139Z,4.07
2022-10-04T02:23:41.469Z,4.53
2022-10-04T02:26:09.511Z,3.97
2022-10-04T02:28:37.258Z,3.85
2022-10-04T02:31:23.347Z,4.03
2022-10-04T02:33:51.423Z,4.50
2022-10-04T02:36:19.527Z,4.22
2022-10-04T02:38:50.386Z,4.05
2022-10-04T02:41:23.617Z,4.53
2022-10-04T02:43:56.597Z,4.70
2022-10-04T02:46:26.908Z,4.30
2022-10-04T02:48:56.753Z,4.32
2022-10-04T02:51:25.624Z,4.03
2022-10-04T02:54:03.373Z,4.28
2022-10-04T02:56:31.835Z,3.95
2022-10-04T02:59:05.841Z,4.10
2022-10-04T03:01:51.913Z,3.42
2022-10-04T03:04:21.028Z,3.92
2022-10-04T03:06:48.843Z,3.30
2022-10-04T03:09:16.259Z,3.65
2022-10-04T03:11:43.926Z,3.30
2022-10-04T03:14:14.591Z,3.70
2022-10-04T03:16:43.694Z,3.35
2022-10-04T03:19:11.662Z,3.33
2022-10-04T03:21:40.765Z,3.60
2022-10-04T03:24:09.420Z,3.97
2022-10-04T03:26:42.918Z,3.78
2022-10-04T03:29:11.926Z,3.70
2022-10-04T03:31:43.600Z,3.30
2022-10-04T03:34:17.773Z,3.30
2022-10-04T03:36:47.110Z,3.60
2022-10-04T03:39:18.207Z,3.83
2022-10-04T03:41:45.859Z,3.55
2022-10-04T03:44:16.490Z,3.60
2022-10-04T03:46:45.136Z,3.53
2022-10-04T03:49:17.330Z,3.35
2022-10-04T03:51:46.074Z,3.78
2022-10-04T03:54:17.918Z,3.47
2022-10-04T03:56:45.381Z,3.33
2022-10-04T03:59:14.902Z,3.40
2022-10-04T04:02:01.154Z,3.38
2022-10-04T04:04:31.098Z,3.70
2022-10-04T04:07:00.983Z,3.67
2022-10-04T04:09:30.995Z,4.15
2022-10-04T04:11:58.550Z,3.75
2022-10-04T04:14:26.535Z,3.97
2022-10-04T04:17:13.555Z,3.97
2022-10-04T04:19:40.705Z,4.63
2022-10-04T04:22:12.447Z,4.18
2022-10-04T04:24:40.523Z,4.75
2022-10-04T04:27:10.428Z,4.35
2022-10-04T04:29:44.869Z,4.25
2022-10-04T04:32:31.918Z,4.28
2022-10-04T04:35:00.651Z,3.78
2022-10-04T04:37:27.840Z,4.15
2022-10-04T04:39:55.392Z,4.55
2022-10-04T04:42:31.835Z,5.50
2022-10-04T04:45:00.803Z,4.30
2022-10-04T04:47:29.988Z,5.47
2022-10-04T04:49:59.148Z,5.53
2022-10-04T04:52:28.412Z,4.90
2022-10-04T04:54:56.215Z,4.95
2022-10-04T04:57:23.597Z,4.30
2022-10-04T04:59:53.549Z,4.38
2022-10-04T05:02:37.345Z,5.22
2022-10-04T05:05:15.500Z,4.95
2022-10-04T05:07:45.803Z,5.20
2022-10-04T05:10:31.755Z,4.38
2022-10-04T05:13:00.145Z,5.20
2022-10-04T05:15:28.901Z,6.07
2022-10-04T05:17:56.021Z,6.15
2022-10-04T05:20:23.245Z,6.25
2022-10-04T05:22:51.368Z,7.28
2022-10-04T05:25:27.294Z,7.57
2022-10-04T05:27:56.083Z,8.13
2022-10-04T05:30:36.225Z,8.65
2022-10-04T05:33:11.674Z,8.05
2022-10-04T05:35:47.985Z,8.20
2022-10-04T05:38:33.205Z,8.57
2022-10-04T05:41:21.044Z,9.00
2022-10-04T05:43:51.963Z,14.18
2022-10-04T05:46:19.124Z,7.85
2022-10-04T05:48:46.947Z,8.32
2022-10-04T05:51:21.338Z,8.50
2022-10-04T05:53:50.000Z,7.32
2022-10-04T05:56:41.346Z,8.75
2022-10-04T05:59:14.619Z,9.45
2022-10-04T06:02:01.996Z,9.23
2022-10-04T06:04:34.861Z,10.50
2022-10-04T06:09:39.262Z,11.57
2022-10-04T06:12:11.625Z,11.13
2022-10-04T06:14:51.096Z,11.10
2022-10-04T06:17:27.203Z,23.25
2022-10-04T06:20:00.885Z,15.65
2022-10-04T06:22:28.005Z,9.75
2022-10-04T06:24:58.106Z,14.07
2022-10-04T06:27:36.244Z,13.90
2022-10-04T06:30:06.210Z,14.32
2022-10-04T06:32:51.979Z,17.42
2022-10-04T06:35:38.090Z,16.70
2022-10-04T06:38:11.280Z,15.57
2022-10-04T06:40:54.166Z,14.35
2022-10-04T06:43:30.513Z,11.73
2022-10-04T06:46:06.833Z,10.00
2022-10-04T06:48:39.454Z,7.43
2022-10-04T06:51:14.217Z,7.85
2022-10-04T06:53:47.081Z,8.40
2022-10-04T06:59:02.949Z,6.57
2022-10-04T07:01:34.955Z,5.65
2022-10-04T07:04:08.028Z,6.75
2022-10-04T07:06:38.734Z,7.65
2022-10-04T07:09:07.843Z,9.50
2022-10-04T07:11:50.506Z,5.25
2022-10-04T07:14:22.874Z,6.15
2022-10-04T07:17:03.129Z,5.78
2022-10-04T07:19:50.460Z,4.90
2022-10-04T07:22:21.167Z,5.93
2022-10-04T07:24:57.271Z,6.20
2022-10-04T07:27:35.548Z,5.07
2022-10-04T07:30:06.077Z,5.90
2022-10-04T07:32:38.706Z,6.47
2022-10-04T07:35:14.670Z,6.43
2022-10-04T07:38:00.459Z,4.50
2022-10-04T07:40:30.594Z,4.00
2022-10-04T07:43:00.868Z,3.53
2022-10-04T07:45:33.138Z,4.28
2022-10-04T07:48:12.158Z,3.70
2022-10-04T07:50:47.032Z,4.35
2022-10-04T07:53:19.980Z,3.10
2022-10-04T07:55:57.479Z,3.78
2022-10-04T07:58:53.703Z,4.43
2022-10-04T08:01:34.386Z,4.70
2022-10-04T08:04:14.247Z,5.15
2022-10-04T08:06:47.424Z,4.97
2022-10-04T08:09:24.323Z,4.35
2022-10-04T08:11:59.647Z,3.92
2022-10-04T08:14:39.792Z,3.53
2022-10-04T08:17:06.853Z,5.75
2022-10-04T08:19:52.609Z,5.50
2022-10-04T08:22:29.882Z,4.07
2022-10-04T08:25:17.239Z,4.32
2022-10-04T08:28:22.688Z,4.10
2022-10-04T08:31:13.151Z,3.00
2022-10-04T08:33:43.042Z,3.00
2022-10-04T08:36:30.351Z,3.03
2022-10-04T08:38:58.533Z,3.08
2022-10-04T08:41:28.566Z,3.03
2022-10-04T08:44:14.544Z,2.67
2022-10-04T08:47:00.680Z,2.80
2022-10-04T08:49:27.955Z,3.15
2022-10-04T08:52:19.064Z,2.75
2022-10-04T08:54:46.562Z,2.65
2022-10-04T08:57:16.428Z,2.58
2022-10-04T08:59:46.583Z,2.08
2022-10-04T09:02:19.844Z,2.60
2022-10-04T09:05:06.326Z,2.17
2022-10-04T09:07:51.939Z,2.15
2022-10-04T09:10:39.195Z,1.80
2022-10-04T09:13:25.263Z,2.30
2022-10-04T09:15:52.533Z,2.42
2022-10-04T09:18:38.369Z,2.45
2022-10-04T09:21:14.370Z,2.60
2022-10-04T09:23:41.411Z,2.20
2022-10-04T09:26:23.884Z,2.30
2022-10-04T09:29:20.259Z,2.45
2022-10-04T09:31:48.044Z,2.50
2022-10-04T09:34:17.096Z,2.50
2022-10-04T09:36:55.403Z,2.35
2022-10-04T09:39:41.141Z,3.35
2022-10-04T09:42:21.425Z,2.03
2022-10-04T09:44:48.503Z,2.03
2022-10-04T09:47:22.084Z,2.20
2022-10-04T09:49:52.023Z,2.13
2022-10-04T09:52:37.361Z,1.88
2022-10-04T09:55:13.947Z,2.42
2022-10-04T09:58:13.221Z,2.28
2022-10-04T10:00:50.605Z,1.98
2022-10-04T10:03:17.804Z,1.88
2022-10-04T10:05:44.983Z,2.10
2022-10-04T10:08:30.317Z,2.17
2022-10-04T10:11:26.826Z,2.47
2022-10-04T10:13:59.655Z,2.10
2022-10-04T10:19:15.469Z,1.92
2022-10-04T10:21:42.804Z,2.20
2022-10-04T10:24:10.518Z,2.03
2022-10-04T10:26:58.124Z,2.22
2022-10-04T10:29:43.527Z,2.38
2022-10-04T10:32:20.903Z,2.22
2022-10-04T10:34:48.903Z,2.00
2022-10-04T10:37:16.350Z,2.50
2022-10-04T10:39:57.709Z,2.60
2022-10-04T10:42:48.592Z,2.47
2022-10-04T10:45:21.190Z,2.00
2022-10-04T10:47:51.276Z,2.33
2022-10-04T10:50:18.388Z,2.90
2022-10-04T10:52:54.575Z,2.05
2022-10-04T10:55:27.482Z,2.33
2022-10-04T10:57:54.522Z,2.28
2022-10-04T11:00:27.753Z,2.17
2022-10-04T11:03:13.567Z,2.13
2022-10-04T11:05:41.675Z,2.50
2022-10-04T11:08:35.374Z,2.28
2022-10-04T11:11:05.198Z,1.90
2022-10-04T11:13:46.637Z,2.13
2022-10-04T11:16:34.332Z,2.33
2022-10-04T11:19:07.436Z,2.33
2022-10-04T11:21:52.907Z,2.03
2022-10-04T11:24:29.075Z,2.13
2022-10-04T11:27:05.218Z,1.77
2022-10-04T11:29:32.233Z,2.30
2022-10-04T11:32:02.387Z,1.92
2022-10-04T11:34:39.834Z,2.45
2022-10-04T11:37:13.816Z,1.75
2022-10-04T11:39:59.582Z,1.50
2022-10-04T11:42:32.755Z,1.88
2022-10-04T11:45:19.334Z,1.80
2022-10-04T11:48:10.273Z,1.73
2022-10-04T11:50:47.996Z,2.00
2022-10-04T11:53:34.241Z,2.38
2022-10-04T11:56:13.667Z,1.48
2022-10-04T11:58:46.443Z,1.77
2022-10-04T12:04:00.135Z,1.27
2022-10-04T12:06:40.494Z,1.80
2022-10-04T12:09:25.025Z,1.30
2022-10-04T12:12:25.870Z,1.20
2022-10-04T12:14:53.226Z,1.30
2022-10-04T12:17:33.412Z,1.50
2022-10-04T12:20:14.423Z,1.52
2022-10-04T12:22:53.770Z,1.50
2022-10-04T12:25:40.391Z,1.50
2022-10-04T12:28:20.349Z,1.45
2022-10-04T12:31:02.856Z,1.50
2022-10-04T12:33:36.138Z,1.70
2022-10-04T12:36:14.241Z,1.60
2022-10-04T12:38:41.334Z,1.35
2022-10-04T12:41:12.094Z,1.77
2022-10-04T12:43:57.625Z,1.35
2022-10-04T12:46:37.513Z,1.33
2022-10-04T12:49:21.340Z,1.60
2022-10-04T12:51:54.964Z,1.35
2022-10-04T12:54:27.886Z,1.02
2022-10-04T12:57:06.975Z,1.63
2022-10-04T12:59:34.040Z,1.38
2022-10-04T13:02:21.600Z,1.40
2022-10-04T13:04:51.007Z,1.60
2022-10-04T13:07:20.842Z,1.25
2022-10-04T13:10:12.144Z,1.30
2022-10-04T13:12:59.802Z,1.00
2022-10-04T13:18:31.146Z,1.20
2022-10-04T13:20:58.251Z,1.35
2022-10-04T13:23:48.589Z,1.33
2022-10-04T13:26:22.613Z,1.30
2022-10-04T13:29:04.332Z,1.20
2022-10-04T13:31:40.606Z,1.50
2022-10-04T13:34:26.853Z,1.58
2022-10-04T13:37:02.592Z,1.38
2022-10-04T13:39:29.674Z,1.48
2022-10-04T13:42:29.005Z,1.77
2022-10-04T13:45:18.289Z,1.35
2022-10-04T13:47:45.446Z,1.17
2022-10-04T13:50:15.366Z,0.98
2022-10-04T13:53:25.722Z,1.17
2022-10-04T13:56:23.262Z,1.00
2022-10-04T13:58:53.519Z,1.30
2022-10-04T14:01:20.777Z,1.30
2022-10-04T14:03:51.052Z,1.10
2022-10-04T14:06:18.102Z,1.38
2022-10-04T14:08:56.713Z,1.48
2022-10-04T14:11:36.123Z,1.48
2022-10-04T14:14:10.133Z,1.30
2022-10-04T14:16:56.202Z,1.67
2022-10-04T14:19:46.724Z,1.02
2022-10-04T14:22:25.853Z,1.23
2022-10-04T14:25:11.771Z,1.40
2022-10-04T14:27:58.701Z,1.08
2022-10-04T14:30:44.627Z,1.27
2022-10-04T14:33:11.690Z,1.60
2022-10-04T14:35:44.861Z,1.40
2022-10-04T14:38:26.784Z,1.17
2022-10-04T14:41:03.379Z,1.43
2022-10-04T14:43:30.683Z,1.50
2022-10-04T14:46:13.585Z,1.30
2022-10-04T14:51:15.568Z,1.35
2022-10-04T14:53:42.704Z,1.40
2022-10-04T14:56:15.774Z,1.67
2022-10-04T14:58:54.093Z,1.60
2022-10-04T15:01:34.306Z,1.77
2022-10-04T15:04:13.585Z,1.50
2022-10-04T15:06:49.195Z,1.70
2022-10-04T15:09:39.750Z,1.75
2022-10-04T15:12:40.843Z,1.92
2022-10-04T15:15:13.134Z,1.40
2022-10-04T15:18:02.095Z,1.83
2022-10-04T15:20:31.028Z,1.80
2022-10-04T15:23:13.212Z,1.80
2022-10-04T15:25:48.040Z,1.53
2022-10-04T15:28:27.203Z,2.03
2022-10-04T15:31:01.479Z,1.90
2022-10-04T15:33:28.561Z,1.65
2022-10-04T15:35:58.836Z,1.40
2022-10-04T15:38:25.890Z,1.60
2022-10-04T15:41:04.612Z,1.45
2022-10-04T15:43:34.848Z,1.63
2022-10-04T15:46:08.746Z,1.88
2022-10-04T15:48:57.741Z,1.90
2022-10-04T15:51:44.007Z,1.77
2022-10-04T15:54:13.908Z,2.17
2022-10-04T15:56:41.006Z,2.50
2022-10-04T15:59:19.042Z,2.10
2022-10-04T16:02:01.465Z,2.40
2022-10-04T16:04:47.141Z,3.05
2022-10-04T16:07:20.774Z,2.60
2022-10-04T16:09:58.779Z,3.20
2022-10-04T16:12:26.103Z,3.20
2022-10-04T16:14:58.520Z,3.38
2022-10-04T16:17:37.562Z,3.55
2022-10-04T16:20:11.161Z,4.35
2022-10-04T16:22:38.393Z,3.28
2022-10-04T16:25:24.167Z,2.78
2022-10-04T16:27:57.386Z,3.03
2022-10-04T16:30:34.067Z,2.13
2022-10-04T16:33:28.703Z,2.25
2022-10-04T16:36:04.532Z,2.20
2022-10-04T16:38:35.200Z,2.20
2022-10-04T16:41:09.301Z,1.92
2022-10-04T16:43:39.588Z,2.03
2022-10-04T16:46:13.826Z,2.35
2022-10-04T16:48:49.782Z,2.47
2022-10-04T16:51:16.857Z,2.25
2022-10-04T16:53:50.210Z,2.65
2022-10-04T16:56:19.562Z,2.80
2022-10-04T16:59:06.769Z,2.63
2022-10-04T17:01:55.177Z,2.88
2022-10-04T17:04:42.191Z,3.03
2022-10-04T17:07:28.172Z,3.92
2022-10-04T17:09:56.332Z,3.22
2022-10-04T17:12:41.985Z,3.47
2022-10-04T17:15:21.618Z,3.88
2022-10-04T17:18:06.883Z,4.07
2022-10-04T17:20:39.971Z,4.22
2022-10-04T17:23:30.077Z,4.05
2022-10-04T17:26:14.683Z,3.33
2022-10-04T17:28:47.955Z,3.65
2022-10-04T17:31:16.173Z,3.50
2022-10-04T17:33:43.439Z,4.20
2022-10-04T17:36:14.339Z,3.83
2022-10-04T17:38:45.148Z,3.80
2022-10-04T17:41:31.022Z,3.33
2022-10-04T17:44:04.276Z,3.70
2022-10-04T17:46:37.976Z,3.60
2022-10-04T17:49:31.210Z,2.92
2022-10-04T17:55:05.882Z,3.90
2022-10-04T17:57:35.776Z,3.63
2022-10-04T18:00:16.146Z,4.15
2022-10-04T18:02:45.975Z,3.90
2022-10-04T18:05:18.679Z,3.40
2022-10-04T18:10:24.636Z,3.63
2022-10-04T18:13:01.772Z,4.10
2022-10-04T18:15:34.777Z,4.78
2022-10-04T18:18:11.045Z,4.07
2022-10-04T18:20:40.648Z,4.60
2022-10-04T18:23:16.955Z,4.65
2022-10-04T18:25:44.299Z,4.60
2022-10-04T18:28:13.636Z,4.57
2022-10-04T18:30:40.944Z,4.97
2022-10-04T18:33:14.403Z,5.05
2022-10-04T18:35:51.383Z,6.28
2022-10-04T18:38:21.445Z,6.60
2022-10-04T18:40:55.914Z,7.45
2022-10-04T18:43:31.136Z,7.82
2022-10-04T18:46:06.783Z,8.40
2022-10-04T18:48:53.090Z,7.03
2022-10-04T18:51:28.926Z,5.68
2022-10-04T18:54:16.280Z,6.32
2022-10-04T18:57:02.343Z,6.88
2022-10-04T19:00:07.464Z,5.75
2022-10-04T19:03:03.696Z,5.97
2022-10-04T19:05:35.771Z,6.65
2022-10-04T19:08:41.278Z,7.03
2022-10-04T19:11:21.059Z,8.43
2022-10-04T19:13:48.363Z,7.65
2022-10-04T19:16:17.727Z,9.95
2022-10-04T19:19:10.989Z,8.70
2022-10-04T19:24:14.935Z,10.52
2022-10-04T19:26:44.340Z,12.38
2022-10-04T19:29:11.643Z,12.23
2022-10-04T19:31:50.441Z,12.18
2022-10-04T19:34:21.138Z,13.10
2022-10-04T19:36:54.430Z,13.68
2022-10-04T19:39:40.427Z,13.85
2022-10-04T19:42:15.610Z,11.65
2022-10-04T19:44:51.954Z,10.57
2022-10-04T19:47:35.196Z,11.98
2022-10-04T19:50:05.390Z,14.02
2022-10-04T19:52:32.456Z,11.35
2022-10-04T19:55:21.472Z,8.85
2022-10-04T19:57:58.546Z,10.20
2022-10-04T20:00:25.684Z,9.27
2022-10-04T20:02:53.060Z,8.75
2022-10-04T20:05:28.281Z,8.32
2022-10-04T20:08:05.181Z,9.25
2022-10-04T20:10:34.948Z,7.32
2022-10-04T20:13:08.726Z,6.70
2022-10-04T20:15:36.344Z,6.18
2022-10-04T20:18:23.439Z,7.90
2022-10-04T20:20:57.214Z,6.93
2022-10-04T20:23:37.418Z,6.32
2022-10-04T20:26:11.665Z,6.90
2022-10-04T20:28:43.591Z,7.15
2022-10-04T20:31:20.411Z,6.10
2022-10-04T20:33:48.099Z,6.93
2022-10-04T20:36:21.118Z,6.25
2022-10-04T20:39:01.542Z,5.65
2022-10-04T20:41:28.582Z,6.00
2022-10-04T20:44:02.751Z,6.40
2022-10-04T20:46:39.610Z,6.18
2022-10-04T20:49:15.227Z,7.05
2022-10-04T20:51:50.567Z,7.78
2022-10-04T20:54:18.346Z,8.82
2022-10-04T20:56:49.071Z,9.45
2022-10-04T20:59:19.687Z,9.88
2022-10-04T21:02:06.766Z,11.52
2022-10-04T21:04:41.618Z,12.15
2022-10-04T21:07:13.313Z,11.05
2022-10-04T21:09:42.051Z,11.60
2022-10-04T21:12:27.808Z,10.77
2022-10-04T21:15:06.521Z,9.38
2022-10-04T21:17:35.143Z,10.45
2022-10-04T21:20:04.731Z,10.57
2022-10-04T21:22:33.692Z,9.82
2022-10-04T21:25:06.140Z,9.75
2022-10-04T21:27:44.655Z,9.40
2022-10-04T21:30:16.726Z,12.32
2022-10-04T21:32:44.227Z,11.52
2022-10-04T21:35:12.270Z,10.82
2022-10-04T21:37:39.546Z,10.30
2022-10-04T21:40:07.054Z,10.35
2022-10-04T21:42:34.317Z,10.93
2022-10-04T21:45:01.400Z,9.65
2022-10-04T21:47:28.527Z,9.95
2022-10-04T21:49:55.593Z,8.88
2022-10-04T21:52:22.785Z,9.65
2022-10-04T21:54:49.962Z,10.13
2022-10-04T21:57:17.075Z,9.60
2022-10-04T21:59:44.161Z,10.75
2022-10-04T22:02:11.327Z,9.95
2022-10-04T22:04:38.479Z,9.70
2022-10-04T22:07:05.562Z,10.25
2022-10-04T22:09:33.932Z,8.02
2022-10-04T22:12:01.199Z,8.10
2022-10-04T22:14:28.355Z,7.93
2022-10-04T22:16:55.449Z,7.63
2022-10-04T22:19:22.611Z,6.70
2022-10-04T22:21:49.713Z,10.82
2022-10-04T22:24:20.767Z,8.60
2022-10-04T22:26:48.539Z,8.57
2022-10-04T22:29:17.339Z,9.82
2022-10-04T22:31:47.258Z,11.80
2022-10-04T22:34:19.168Z,9.35
2022-10-04T22:36:47.293Z,10.10
2022-10-04T22:39:15.930Z,8.68
2022-10-04T22:41:44.393Z,10.20
2022-10-04T22:44:14.234Z,10.07
2022-10-04T22:46:43.426Z,12.75
2022-10-04T22:49:16.046Z,17.52
2022-10-04T22:51:44.398Z,12.20
2022-10-04T22:54:12.788Z,11.95
2022-10-04T22:56:41.192Z,11.48
2022-10-04T22:59:15.726Z,10.27
2022-10-04T23:01:43.630Z,8.23
2022-10-04T23:04:16.891Z,7.70
2022-10-04T23:06:44.342Z,7.50
2022-10-04T23:09:11.716Z,7.45
2022-10-04T23:11:38.818Z,7.05
2022-10-04T23:14:07.559Z,6.70
2022-10-04T23:16:34.923Z,7.22
2022-10-04T23:19:07.183Z,10.00
2022-10-04T23:21:35.091Z,9.60
2022-10-04T23:24:05.566Z,7.97
2022-10-04T23:26:37.020Z,7.50
2022-10-04T23:29:06.610Z,8.57
2022-10-04T23:31:34.920Z,8.18
2022-10-04T23:34:02.548Z,8.93
2022-10-04T23:36:29.671Z,6.88
2022-10-04T23:38:58.148Z,7.55
2022-10-04T23:41:26.083Z,6.97
2022-10-04T23:43:53.138Z,6.88
2022-10-04T23:46:22.408Z,7.22
2022-10-04T23:48:49.846Z,7.28
2022-10-04T23:51:17.934Z,7.63
2022-10-04T23:53:45.879Z,8.63
2022-10-04T23:56:20.133Z,8.32
2022-10-04T23:58:47.804Z,8.93
